createdAt,value
2019-02-09T00:00:27.264Z,194.03
2019-02-09T00:03:08.215Z,188.93
2019-02-09T00:05:49.091Z,198.37
2019-02-09T00:08:30.058Z,193.87
2019-02-09T00:11:10.716Z,189.77
2019-02-09T00:13:51.380Z,193.80
2019-02-09T00:16:31.872Z,194.27
2019-02-09T00:19:12.553Z,181.93
2019-02-09T00:21:53.509Z,191.80
2019-02-09T00:24:34.469Z,188.20
2019-02-09T00:27:15.556Z,185.40
2019-02-09T00:29:56.213Z,184.33
2019-02-09T00:32:37.351Z,174.33
2019-02-09T00:35:18.312Z,177.27
2019-02-09T00:37:59.370Z,192.73
2019-02-09T00:40:40.474Z,194.73
2019-02-09T00:43:21.197Z,195.23
2019-02-09T00:46:04.358Z,180.63
2019-02-09T00:48:44.886Z,180.37
2019-02-09T00:51:24.762Z,177.30
2019-02-09T00:54:05.677Z,174.07
2019-02-09T00:56:46.354Z,178.10
2019-02-09T00:59:27.315Z,183.53
2019-02-09T01:02:08.218Z,332.53
2019-02-09T01:04:49.187Z,229.37
2019-02-09T01:07:30.543Z,241.63
2019-02-09T01:10:10.814Z,228.77
2019-02-09T01:12:52.199Z,233.10
2019-02-09T01:15:33.094Z,231.13
2019-02-09T01:18:13.977Z,260.30
2019-02-09T01:20:54.996Z,234.17
2019-02-09T01:23:36.241Z,237.20
2019-02-09T01:26:16.707Z,213.80
2019-02-09T01:28:57.427Z,229.40
2019-02-09T01:31:38.604Z,209.63
2019-02-09T01:34:19.246Z,206.00
2019-02-09T01:37:00.375Z,212.07
2019-02-09T01:39:41.363Z,221.33
2019-02-09T01:42:22.631Z,202.30
2019-02-09T01:45:03.366Z,204.37
2019-02-09T01:47:43.682Z,208.23
2019-02-09T01:50:25.205Z,212.97
2019-02-09T01:53:05.997Z,205.57
2019-02-09T01:55:46.788Z,216.30
2019-02-09T01:58:28.437Z,204.67
2019-02-09T02:01:10.003Z,206.00
2019-02-09T02:03:51.113Z,198.17
2019-02-09T02:06:32.586Z,199.33
2019-02-09T02:09:13.342Z,203.47
2019-02-09T02:11:54.551Z,206.20
2019-02-09T02:14:35.757Z,205.67
2019-02-09T02:17:16.466Z,192.53
2019-02-09T02:19:57.355Z,203.77
2019-02-09T02:22:38.337Z,173.50
2019-02-09T02:25:19.418Z,173.10
2019-02-09T02:28:00.866Z,168.43
2019-02-09T02:30:42.152Z,156.50
2019-02-09T02:33:23.130Z,144.23
2019-02-09T02:36:03.975Z,132.77
2019-02-09T02:38:45.023Z,135.97
2019-02-09T02:41:25.764Z,137.30
2019-02-09T02:44:06.422Z,137.50
2019-02-09T02:46:47.713Z,139.43
2019-02-09T02:49:29.294Z,128.63
2019-02-09T02:52:10.503Z,126.53
2019-02-09T02:54:51.230Z,127.00
2019-02-09T02:57:32.098Z,122.83
2019-02-09T03:00:13.192Z,120.10
2019-02-09T03:02:54.623Z,118.90
2019-02-09T03:05:36.597Z,108.37
2019-02-09T03:08:17.532Z,114.33
2019-02-09T03:10:58.524Z,113.20
2019-02-09T03:13:39.291Z,110.10
2019-02-09T03:16:20.457Z,118.27
2019-02-09T03:19:01.751Z,126.67
2019-02-09T03:21:42.713Z,113.40
2019-02-09T03:24:23.121Z,112.40
2019-02-09T03:27:04.044Z,106.80
2019-02-09T03:29:44.828Z,118.70
2019-02-09T03:32:26.147Z,181.87
2019-02-09T03:35:06.785Z,218.97
2019-02-09T03:37:47.522Z,149.47
2019-02-09T03:40:28.748Z,115.37
2019-02-09T03:43:09.994Z,110.93
2019-02-09T03:45:50.960Z,112.57
2019-02-09T03:48:31.678Z,107.90
2019-02-09T03:51:13.103Z,96.53
2019-02-09T03:53:54.170Z,97.70
2019-02-09T03:56:34.774Z,125.57
2019-02-09T03:59:16.096Z,158.00
2019-02-09T04:01:56.802Z,97.30
2019-02-09T04:04:37.782Z,102.30
2019-02-09T04:07:18.977Z,101.40
2019-02-09T04:10:00.244Z,99.83
2019-02-09T04:12:41.315Z,98.93
2019-02-09T04:15:22.465Z,97.73
2019-02-09T04:18:03.756Z,98.83
2019-02-09T04:20:44.155Z,108.00
2019-02-09T04:23:25.014Z,103.43
2019-02-09T04:26:05.534Z,92.00
2019-02-09T04:28:46.960Z,93.33
2019-02-09T04:31:27.965Z,95.63
2019-02-09T04:34:08.907Z,97.97
2019-02-09T04:36:50.145Z,101.57
2019-02-09T04:39:31.146Z,105.67
2019-02-09T04:42:11.741Z,92.00
2019-02-09T04:44:52.730Z,130.77
2019-02-09T04:47:33.374Z,101.97
2019-02-09T04:50:13.671Z,89.33
2019-02-09T04:52:54.775Z,148.60
2019-02-09T04:55:35.698Z,146.63
2019-02-09T04:58:16.646Z,92.27
2019-02-09T05:00:57.604Z,82.27
2019-02-09T05:03:37.875Z,94.10
2019-02-09T05:06:18.331Z,85.13
2019-02-09T05:08:58.891Z,86.10
2019-02-09T05:11:40.091Z,92.87
2019-02-09T05:14:21.032Z,88.30
2019-02-09T05:17:01.413Z,84.90
2019-02-09T05:19:42.631Z,88.97
2019-02-09T05:22:23.347Z,94.33
2019-02-09T05:25:04.325Z,93.17
2019-02-09T05:27:46.377Z,93.90
2019-02-09T05:30:27.913Z,82.17
2019-02-09T05:33:09.042Z,82.30
2019-02-09T05:39:05.285Z,118.03
2019-02-09T05:41:47.052Z,147.37
2019-02-09T05:44:28.226Z,84.87
2019-02-09T06:00:34.270Z,84.20
2019-02-09T06:03:15.858Z,83.80
2019-02-09T06:05:56.816Z,80.47
2019-02-09T06:08:37.364Z,85.87
2019-02-09T06:11:19.247Z,83.13
2019-02-09T06:13:59.951Z,81.00
2019-02-09T06:16:40.878Z,82.00
2019-02-09T06:19:21.897Z,76.57
2019-02-09T06:22:02.877Z,89.23
2019-02-09T06:24:44.047Z,91.33
2019-02-09T06:27:25.028Z,89.70
2019-02-09T06:30:05.672Z,84.10
2019-02-09T06:32:46.298Z,83.47
2019-02-09T06:35:27.335Z,90.40
2019-02-09T06:38:07.716Z,87.80
2019-02-09T06:40:49.194Z,89.60
2019-02-09T06:43:30.556Z,97.50
2019-02-09T06:46:14.330Z,93.80
2019-02-09T06:48:55.273Z,167.47
2019-02-09T06:51:35.334Z,103.60
2019-02-09T06:54:16.297Z,102.33
2019-02-09T06:56:56.862Z,156.07
2019-02-09T06:59:37.981Z,370.17
2019-02-09T07:02:19.234Z,124.60
2019-02-09T07:05:00.127Z,93.93
2019-02-09T07:07:40.786Z,92.00
2019-02-09T07:10:21.446Z,95.13
2019-02-09T07:13:02.089Z,98.40
2019-02-09T07:15:42.766Z,90.33
2019-02-09T07:18:24.061Z,82.50
2019-02-09T07:21:05.175Z,88.13
2019-02-09T07:23:45.885Z,88.23
2019-02-09T07:26:26.858Z,213.63
2019-02-09T07:29:07.766Z,76.33
2019-02-09T07:31:48.280Z,76.67
2019-02-09T07:34:30.122Z,79.10
2019-02-09T07:37:11.270Z,74.33
2019-02-09T07:39:52.024Z,72.67
2019-02-09T07:42:33.178Z,70.63
2019-02-09T07:45:14.181Z,73.50
2019-02-09T07:47:54.841Z,84.60
2019-02-09T07:50:35.417Z,72.97
2019-02-09T07:53:16.091Z,74.70
2019-02-09T07:55:56.737Z,70.43
2019-02-09T08:14:58.507Z,89.67
2019-02-09T08:17:39.473Z,95.57
2019-02-09T08:20:20.185Z,94.27
2019-02-09T08:23:01.102Z,111.23
2019-02-09T08:25:42.625Z,146.60
2019-02-09T08:28:23.576Z,147.43
2019-02-09T08:31:03.954Z,162.87
2019-02-09T08:33:44.539Z,179.17
2019-02-09T08:36:30.679Z,167.30
2019-02-09T08:39:12.541Z,163.67
2019-02-09T08:41:53.361Z,157.80
2019-02-09T08:44:35.111Z,181.63
2019-02-09T08:47:16.971Z,164.00
2019-02-09T08:49:57.398Z,178.60
2019-02-09T08:52:38.627Z,177.23
2019-02-09T08:55:19.901Z,193.70
2019-02-09T08:58:01.844Z,179.97
2019-02-09T09:00:42.773Z,179.87
2019-02-09T09:03:25.499Z,182.30
2019-02-09T09:06:05.720Z,175.43
2019-02-09T09:08:46.749Z,169.87
2019-02-09T09:11:28.051Z,177.37
2019-02-09T09:14:08.627Z,169.30
2019-02-09T09:16:49.851Z,180.13
2019-02-09T09:19:30.572Z,173.67
2019-02-09T09:22:11.506Z,181.23
2019-02-09T09:24:51.696Z,169.43
2019-02-09T09:27:33.715Z,167.53
2019-02-09T09:30:13.778Z,172.27
2019-02-09T09:32:54.339Z,162.27
2019-02-09T09:35:34.698Z,200.13
2019-02-09T09:38:15.137Z,184.40
2019-02-09T09:40:55.853Z,167.43
2019-02-09T09:43:35.871Z,167.93
2019-02-09T09:46:15.941Z,157.03
2019-02-09T09:48:56.037Z,155.93
2019-02-09T09:51:36.339Z,170.80
2019-02-09T09:54:16.524Z,157.03
2019-02-09T09:56:56.977Z,157.33
2019-02-09T09:59:37.842Z,170.53
2019-02-09T10:02:18.851Z,158.13
2019-02-09T10:04:59.186Z,157.50
2019-02-09T10:07:39.885Z,154.47
2019-02-09T10:10:20.326Z,158.13
2019-02-09T10:13:01.350Z,151.73
2019-02-09T10:15:41.863Z,153.97
2019-02-09T10:18:22.438Z,182.57
2019-02-09T10:21:03.412Z,200.53
2019-02-09T10:23:45.416Z,190.13
2019-02-09T10:26:26.584Z,163.77
2019-02-09T10:29:08.491Z,165.50
2019-02-09T10:31:49.666Z,165.30
2019-02-09T10:34:30.943Z,160.57
2019-02-09T10:37:11.837Z,157.20
2019-02-09T10:39:53.175Z,166.07
2019-02-09T10:42:34.154Z,178.83
2019-02-09T10:45:14.793Z,175.43
2019-02-09T10:47:55.951Z,178.73
2019-02-09T10:50:37.028Z,186.93
2019-02-09T10:53:18.156Z,181.27
2019-02-09T10:55:59.603Z,174.63
2019-02-09T10:58:40.538Z,169.77
2019-02-09T11:01:22.157Z,176.13
2019-02-09T11:04:02.997Z,177.73
2019-02-09T11:06:44.156Z,181.10
2019-02-09T11:09:24.476Z,174.73
2019-02-09T11:12:05.281Z,181.63
2019-02-09T11:14:46.360Z,180.50
2019-02-09T11:17:27.344Z,177.93
2019-02-09T11:20:07.895Z,176.53
2019-02-09T11:22:48.657Z,181.90
2019-02-09T11:25:29.829Z,177.13
2019-02-09T11:28:10.820Z,175.07
2019-02-09T11:30:51.746Z,210.10
2019-02-09T11:33:32.466Z,188.27
2019-02-09T11:36:13.649Z,179.20
2019-02-09T11:38:55.615Z,205.67
2019-02-09T11:41:36.533Z,235.80
2019-02-09T11:44:17.278Z,201.97
2019-02-09T11:46:58.470Z,211.43
2019-02-09T11:49:39.029Z,199.33
2019-02-09T11:52:19.902Z,185.47
2019-02-09T11:55:00.675Z,186.70
2019-02-09T11:57:41.685Z,188.73
2019-02-09T12:00:22.648Z,188.87
2019-02-09T12:03:13.892Z,185.43
2019-02-09T12:05:45.189Z,180.67
2019-02-09T12:08:25.815Z,186.47
2019-02-09T12:11:06.817Z,184.23
2019-02-09T12:13:55.022Z,173.77
2019-02-09T12:16:28.735Z,176.73
2019-02-09T12:19:09.691Z,163.77
2019-02-09T12:21:50.937Z,185.13
2019-02-09T12:24:31.905Z,173.30
2019-02-09T12:27:12.166Z,181.17
2019-02-09T12:29:53.504Z,184.27
2019-02-09T12:32:34.522Z,189.83
2019-02-09T12:35:15.734Z,169.10
2019-02-09T12:37:56.059Z,169.07
2019-02-09T12:40:36.696Z,181.93
2019-02-09T12:43:17.656Z,166.87
2019-02-09T12:45:58.934Z,195.67
2019-02-09T12:48:39.962Z,186.13
2019-02-09T12:51:20.568Z,202.57
2019-02-09T12:54:01.814Z,200.33
2019-02-09T12:56:42.818Z,192.60
2019-02-09T12:59:23.604Z,197.60
2019-02-09T13:02:05.341Z,185.43
2019-02-09T13:04:46.254Z,198.40
2019-02-09T13:07:27.589Z,189.37
2019-02-09T13:10:08.318Z,174.93
2019-02-09T13:12:49.131Z,208.17
2019-02-09T13:15:30.151Z,201.23
2019-02-09T13:18:11.427Z,218.83
2019-02-09T13:20:52.352Z,206.73
2019-02-09T13:23:33.279Z,209.13
2019-02-09T13:26:14.272Z,248.90
2019-02-09T13:28:55.896Z,256.67
2019-02-09T13:31:36.213Z,260.40
2019-02-09T13:34:16.978Z,258.83
2019-02-09T13:36:57.847Z,249.27
2019-02-09T13:39:38.647Z,239.60
2019-02-09T13:42:19.428Z,241.90
2019-02-09T13:45:00.417Z,238.17
2019-02-09T13:47:41.214Z,235.17
2019-02-09T13:50:22.304Z,223.40
2019-02-09T13:53:02.998Z,209.67
2019-02-09T13:55:43.667Z,213.20
2019-02-09T13:58:24.609Z,208.60
2019-02-09T14:01:05.267Z,209.60
2019-02-09T14:03:46.820Z,207.23
2019-02-09T14:06:27.847Z,195.07
2019-02-09T14:09:08.497Z,203.23
2019-02-09T14:11:49.346Z,201.03
2019-02-09T14:14:29.826Z,196.07
2019-02-09T14:17:10.753Z,188.77
2019-02-09T14:19:53.327Z,190.17
2019-02-09T14:22:34.798Z,191.37
2019-02-09T14:25:15.294Z,178.70
2019-02-09T14:27:56.543Z,202.77
2019-02-09T14:30:37.995Z,205.33
2019-02-09T14:33:18.711Z,206.30
2019-02-09T14:35:59.405Z,195.17
2019-02-09T14:38:40.879Z,195.80
2019-02-09T14:41:21.967Z,183.40
2019-02-09T14:44:03.118Z,183.03
2019-02-09T14:46:43.490Z,199.97
2019-02-09T14:49:24.442Z,189.40
2019-02-09T14:52:04.808Z,198.00
2019-02-09T14:54:45.783Z,196.93
2019-02-09T14:57:26.938Z,206.90
2019-02-09T15:00:07.650Z,205.57
2019-02-09T15:02:53.512Z,191.93
2019-02-09T15:05:30.192Z,185.20
2019-02-09T15:08:11.097Z,179.57
2019-02-09T15:10:51.968Z,185.60
2019-02-09T15:13:33.126Z,171.43
2019-02-09T15:16:13.980Z,165.90
2019-02-09T15:18:55.067Z,163.63
2019-02-09T15:21:35.612Z,156.60
2019-02-09T15:24:16.875Z,160.10
2019-02-09T15:26:57.835Z,164.00
2019-02-09T15:29:38.856Z,166.77
2019-02-09T15:32:20.070Z,156.03
2019-02-09T15:35:01.408Z,158.87
2019-02-09T15:37:42.379Z,158.30
2019-02-09T15:40:24.583Z,162.37
2019-02-09T15:43:05.559Z,156.37
2019-02-09T15:45:46.815Z,160.20
2019-02-09T15:48:27.896Z,155.03
2019-02-09T15:51:09.405Z,169.03
2019-02-09T15:53:50.621Z,157.50
2019-02-09T15:56:31.268Z,169.93
2019-02-09T15:59:11.912Z,155.27
2019-02-09T16:01:52.398Z,148.37
2019-02-09T16:04:33.498Z,140.23
2019-02-09T16:07:14.235Z,136.27
2019-02-09T16:09:55.096Z,140.17
2019-02-09T16:12:35.877Z,133.37
2019-02-09T16:15:16.719Z,136.27
2019-02-09T16:17:57.827Z,127.03
2019-02-09T16:20:38.972Z,132.70
2019-02-09T16:23:20.263Z,129.97
2019-02-09T16:26:01.173Z,130.83
2019-02-09T16:28:41.905Z,133.97
2019-02-09T16:31:22.898Z,130.93
2019-02-09T16:34:03.574Z,128.20
2019-02-09T16:36:44.437Z,126.60
2019-02-09T16:39:25.223Z,123.17
2019-02-09T16:42:06.966Z,124.43
2019-02-09T16:44:48.219Z,115.83
2019-02-09T16:47:29.212Z,116.63
2019-02-09T16:50:09.405Z,114.50
2019-02-09T16:52:49.854Z,118.67
2019-02-09T16:55:30.824Z,98.73
2019-02-09T16:58:16.538Z,98.63
2019-02-09T17:00:59.484Z,85.07
2019-02-09T17:03:40.403Z,85.93
2019-02-09T17:06:23.038Z,91.60
2019-02-09T17:09:02.617Z,85.17
2019-02-09T17:11:43.970Z,85.37
2019-02-09T17:14:24.618Z,81.30
2019-02-09T17:17:05.488Z,82.13
2019-02-09T17:19:46.923Z,78.73
2019-02-09T17:22:30.784Z,82.67
2019-02-09T17:25:16.907Z,75.93
2019-02-09T17:28:04.314Z,76.87
2019-02-09T17:30:46.472Z,67.73
2019-02-09T17:33:26.975Z,62.80
2019-02-09T17:36:07.840Z,65.67
2019-02-09T17:38:51.133Z,59.90
2019-02-09T17:41:32.935Z,59.77
2019-02-09T17:44:14.044Z,60.47
2019-02-09T17:46:54.620Z,62.53
2019-02-09T17:49:35.257Z,65.00
2019-02-09T17:52:15.636Z,60.50
2019-02-09T17:54:56.423Z,58.67
2019-02-09T17:57:37.287Z,57.73
2019-02-09T18:00:18.014Z,52.67
2019-02-09T18:02:58.814Z,54.67
2019-02-09T18:05:39.513Z,54.87
2019-02-09T18:08:20.083Z,49.17
2019-02-09T18:11:00.870Z,50.67
2019-02-09T18:13:42.294Z,51.90
2019-02-09T18:16:23.407Z,51.53
2019-02-09T18:19:04.103Z,52.43
2019-02-09T18:21:45.958Z,49.93
2019-02-09T18:24:27.422Z,50.30
2019-02-09T18:27:08.101Z,53.23
2019-02-09T18:29:48.846Z,54.33
2019-02-09T18:32:29.746Z,52.43
2019-02-09T18:37:52.913Z,54.47
2019-02-09T18:40:34.280Z,50.60
2019-02-09T18:43:15.228Z,54.23
2019-02-09T18:45:57.757Z,60.23
2019-02-09T18:48:37.996Z,55.47
2019-02-09T18:51:18.954Z,55.80
2019-02-09T18:53:59.493Z,51.47
2019-02-09T18:56:40.938Z,53.30
2019-02-09T18:59:21.869Z,53.30
2019-02-09T19:02:02.368Z,50.83
2019-02-09T19:04:43.658Z,58.60
2019-02-09T19:07:23.896Z,55.47
2019-02-09T19:10:04.971Z,56.70
2019-02-09T19:12:46.084Z,54.07
2019-02-09T19:15:26.709Z,54.73
2019-02-09T19:18:07.590Z,52.17
2019-02-09T19:20:48.695Z,52.30
2019-02-09T19:23:29.515Z,50.27
2019-02-09T19:26:10.637Z,51.53
2019-02-09T19:28:51.422Z,53.10
2019-02-09T19:31:32.157Z,52.47
2019-02-09T19:34:13.019Z,55.77
2019-02-09T19:36:53.409Z,51.83
2019-02-09T19:39:34.320Z,54.10
2019-02-09T19:42:15.646Z,57.77
2019-02-09T19:44:56.878Z,50.07
2019-02-09T19:47:37.321Z,54.03
2019-02-09T19:50:18.367Z,52.63
2019-02-09T19:52:58.873Z,57.63
2019-02-09T19:55:39.792Z,56.33
2019-02-09T19:58:21.042Z,57.03
2019-02-09T20:01:02.636Z,61.57
2019-02-09T20:03:43.393Z,53.50
2019-02-09T20:06:24.027Z,51.47
2019-02-09T20:09:04.452Z,56.23
2019-02-09T20:11:45.767Z,56.90
2019-02-09T20:14:26.497Z,54.37
2019-02-09T20:17:07.561Z,58.93
2019-02-09T20:19:47.829Z,54.30
2019-02-09T20:22:28.124Z,55.83
2019-02-09T20:25:08.388Z,56.30
2019-02-09T20:27:49.527Z,59.67
2019-02-09T20:30:30.424Z,56.07
2019-02-09T20:33:10.952Z,55.13
2019-02-09T20:35:51.387Z,52.20
2019-02-09T20:38:32.014Z,57.77
2019-02-09T20:41:12.767Z,52.57
2019-02-09T20:43:53.657Z,62.23
2019-02-09T20:46:34.292Z,55.50
2019-02-09T20:49:14.805Z,53.43
2019-02-09T20:51:55.647Z,57.83
2019-02-09T20:54:36.074Z,55.77
2019-02-09T20:57:16.152Z,57.03
2019-02-09T20:59:56.815Z,57.17
2019-02-09T21:02:37.496Z,54.97
2019-02-09T21:05:18.350Z,55.67
2019-02-09T21:07:59.456Z,51.67
2019-02-09T21:10:40.229Z,51.40
2019-02-09T21:13:21.226Z,53.27
2019-02-09T21:16:02.961Z,53.80
2019-02-09T21:18:42.555Z,51.90
2019-02-09T21:21:22.707Z,47.00
2019-02-09T21:24:02.592Z,54.73
2019-02-09T21:26:42.623Z,51.20
2019-02-09T21:29:22.994Z,47.97
2019-02-09T21:32:03.151Z,47.03
2019-02-09T21:34:43.267Z,50.73
2019-02-09T21:37:23.169Z,46.13
2019-02-09T21:40:03.260Z,51.30
2019-02-09T21:42:43.349Z,46.57
2019-02-09T21:45:23.338Z,48.50
2019-02-09T21:48:03.478Z,53.23
2019-02-09T21:50:43.464Z,50.60
2019-02-09T21:53:23.577Z,50.70
2019-02-09T21:56:03.546Z,50.90
2019-02-09T21:58:44.174Z,51.20
2019-02-09T22:01:25.005Z,50.17
2019-02-09T22:04:05.497Z,57.33
2019-02-09T22:06:46.312Z,55.73
2019-02-09T22:09:26.742Z,51.90
2019-02-09T22:12:07.412Z,58.80
2019-02-09T22:14:48.013Z,58.67
2019-02-09T22:17:28.584Z,59.80
2019-02-09T22:20:08.907Z,58.27
2019-02-09T22:22:49.988Z,63.03
2019-02-09T22:25:30.506Z,63.10
2019-02-09T22:28:11.283Z,63.37
2019-02-09T22:30:51.555Z,58.17
2019-02-09T22:33:32.186Z,61.00
2019-02-09T22:36:12.492Z,68.57
2019-02-09T22:38:53.303Z,67.27
2019-02-09T22:41:34.405Z,67.70
2019-02-09T22:44:15.038Z,65.67
2019-02-09T22:46:55.027Z,65.30
2019-02-09T22:49:35.732Z,66.67
2019-02-09T22:52:16.428Z,66.63
2019-02-09T22:54:57.151Z,65.77
2019-02-09T22:57:38.153Z,66.33
2019-02-09T23:00:19.137Z,68.83
2019-02-09T23:02:59.800Z,68.47
2019-02-09T23:05:40.563Z,73.20
2019-02-09T23:08:21.437Z,73.67
2019-02-09T23:11:01.767Z,73.90
2019-02-09T23:13:42.081Z,82.90
2019-02-09T23:16:22.507Z,86.13
2019-02-09T23:19:03.305Z,79.73
2019-02-09T23:21:43.956Z,78.80
2019-02-09T23:24:24.882Z,80.17
2019-02-09T23:27:05.517Z,72.93
2019-02-09T23:29:46.565Z,78.40
2019-02-09T23:32:26.925Z,78.37
2019-02-09T23:35:07.586Z,78.40
2019-02-09T23:37:48.165Z,76.10
2019-02-09T23:40:28.738Z,77.13
2019-02-09T23:43:09.391Z,79.87
2019-02-09T23:45:50.265Z,82.77
2019-02-09T23:48:30.623Z,84.17
2019-02-09T23:51:11.014Z,161.00
2019-02-09T23:53:51.757Z,156.63
2019-02-09T23:56:32.721Z,167.87
2019-02-09T23:59:13.350Z,180.87
